Time;durP1;ratioP1;P1;durP2;ratioP2;P2;SDS_P1;SDS_P2;PMS_P1;PMS_P2;Temp;Humidity;BMP_temperature;BMP_pressure;BME280_temperature;BME280_humidity;BME280_pressure;Samples;Min_cycle;Max_cycle;Signal;HPM_P1;HPM_P2
2023/08/04 00:00:47;;;;;;;3.50;1.70;;;;;;;;;;5001945;28;20340;-82
2023/08/04 00:03:14;;;;;;;3.07;1.63;;;;;;;;;;5000415;28;20202;-78
2023/08/04 00:05:41;;;;;;;4.60;1.40;;;;;;;;;;4976886;28;20406;-79
2023/08/04 00:08:07;;;;;;;3.57;1.70;;;;;;;;;;5016862;28;20197;-77
2023/08/04 00:10:36;;;;;;;3.33;1.67;;;;;;;;;;5007615;28;20185;-79
2023/08/04 00:13:02;;;;;;;3.63;1.80;;;;;;;;;;5014230;28;20225;-79
2023/08/04 00:15:29;;;;;;;3.50;2.00;;;;;;;;;;5015882;28;20676;-76
2023/08/04 00:17:56;;;;;;;3.43;1.97;;;;;;;;;;5026127;28;20290;-74
2023/08/04 00:20:23;;;;;;;3.40;1.60;;;;;;;;;;4995806;28;20248;-73
2023/08/04 00:22:49;;;;;;;3.03;1.90;;;;;;;;;;5018372;28;20728;-73
2023/08/04 00:25:15;;;;;;;3.43;1.80;;;;;;;;;;5026142;28;20519;-73
2023/08/04 00:27:41;;;;;;;3.83;1.70;;;;;;;;;;5026818;28;20264;-73
2023/08/04 00:30:09;;;;;;;2.37;1.70;;;;;;;;;;5019816;28;20218;-75
2023/08/04 00:32:35;;;;;;;2.20;1.57;;;;;;;;;;5028249;28;20206;-75
2023/08/04 00:35:03;;;;;;;3.40;1.60;;;;;;;;;;5010756;28;20314;-75
2023/08/04 00:37:29;;;;;;;3.00;1.80;;;;;;;;;;4986519;28;20202;-75
2023/08/04 00:39:56;;;;;;;2.97;1.80;;;;;;;;;;5010343;28;20185;-75
2023/08/04 00:42:22;;;;;;;3.77;1.70;;;;;;;;;;5029586;28;20574;-73
2023/08/04 00:44:48;;;;;;;2.33;1.60;;;;;;;;;;5031466;28;20171;-73
2023/08/04 00:47:14;;;;;;;3.00;1.60;;;;;;;;;;5013676;28;20260;-73
2023/08/04 00:49:41;;;;;;;3.27;1.80;;;;;;;;;;5010142;28;20277;-73
2023/08/04 00:52:08;;;;;;;3.60;1.60;;;;;;;;;;5013842;28;20218;-73
2023/08/04 00:54:34;;;;;;;3.23;1.80;;;;;;;;;;5030262;28;20677;-74
2023/08/04 00:57:02;;;;;;;4.30;1.60;;;;;;;;;;5012395;28;20212;-73
2023/08/04 00:59:28;;;;;;;2.83;1.60;;;;;;;;;;5024298;28;20187;-73
2023/08/04 01:01:54;;;;;;;3.27;1.70;;;;;;;;;;5030170;28;20359;-73
2023/08/04 01:04:21;;;;;;;3.33;1.70;;;;;;;;;;5011927;28;20170;-74
2023/08/04 01:07:12;;;;;;;2.50;1.60;;;;;;;;;;5028755;28;20275;-74
2023/08/04 01:09:38;;;;;;;3.47;1.77;;;;;;;;;;5023979;28;20183;-74
2023/08/04 01:12:08;;;;;;;2.97;1.63;;;;;;;;;;5029843;28;20308;-74
2023/08/04 01:14:35;;;;;;;2.83;1.60;;;;;;;;;;5030776;28;20252;-74
2023/08/04 01:17:03;;;;;;;2.57;1.50;;;;;;;;;;5013254;28;20264;-74
2023/08/04 01:19:29;;;;;;;3.60;1.53;;;;;;;;;;5025399;28;20279;-74
2023/08/04 01:21:55;;;;;;;3.47;1.70;;;;;;;;;;5031704;28;20234;-74
2023/08/04 01:24:21;;;;;;;4.47;1.87;;;;;;;;;;5013059;28;20183;-74
2023/08/04 01:26:49;;;;;;;2.00;1.67;;;;;;;;;;5031176;28;20269;-74
2023/08/04 01:29:16;;;;;;;3.57;1.60;;;;;;;;;;5012210;28;20590;-74
2023/08/04 01:31:42;;;;;;;4.10;1.90;;;;;;;;;;5030495;28;20293;-74
2023/08/04 01:34:08;;;;;;;2.53;1.50;;;;;;;;;;5013073;28;20214;-74
2023/08/04 01:36:35;;;;;;;3.87;1.70;;;;;;;;;;5031234;28;20186;-74
2023/08/04 01:39:01;;;;;;;2.67;1.70;;;;;;;;;;5013387;28;20333;-74
2023/08/04 01:41:27;;;;;;;3.30;1.67;;;;;;;;;;5031376;28;20572;-73
2023/08/04 01:43:53;;;;;;;2.40;1.57;;;;;;;;;;5013399;28;20189;-74
2023/08/04 01:46:19;;;;;;;3.50;1.73;;;;;;;;;;5013197;28;20174;-74
2023/08/04 01:48:45;;;;;;;3.87;1.70;;;;;;;;;;5013366;28;20553;-74
2023/08/04 01:51:11;;;;;;;4.70;1.80;;;;;;;;;;5028796;28;20630;-74
2023/08/04 01:53:37;;;;;;;3.27;1.80;;;;;;;;;;5008343;28;20187;-74
2023/08/04 01:56:03;;;;;;;2.70;1.50;;;;;;;;;;4996990;28;20273;-74
2023/08/04 01:58:30;;;;;;;2.63;1.57;;;;;;;;;;5013200;28;20218;-74
2023/08/04 02:00:56;;;;;;;3.77;1.73;;;;;;;;;;5012604;28;20237;-74
2023/08/04 02:03:22;;;;;;;4.47;1.70;;;;;;;;;;5013189;28;20905;-74
2023/08/04 02:05:48;;;;;;;2.47;1.50;;;;;;;;;;5030575;28;20174;-74
2023/08/04 02:08:14;;;;;;;2.73;1.50;;;;;;;;;;5030391;28;20776;-74
2023/08/04 02:10:51;;;;;;;4.43;1.83;;;;;;;;;;5031083;28;20592;-74
2023/08/04 02:13:17;;;;;;;3.50;1.67;;;;;;;;;;5030561;28;20210;-74
2023/08/04 02:15:43;;;;;;;1.83;1.57;;;;;;;;;;5030927;28;20178;-74
2023/08/04 02:18:09;;;;;;;3.03;1.80;;;;;;;;;;5030124;28;20210;-74
2023/08/04 02:20:35;;;;;;;2.43;1.50;;;;;;;;;;5012705;28;20183;-74
2023/08/04 02:23:02;;;;;;;3.17;1.70;;;;;;;;;;5011765;28;20206;-74
2023/08/04 02:25:28;;;;;;;2.90;1.80;;;;;;;;;;5011452;28;20202;-74
2023/08/04 02:27:54;;;;;;;1.93;1.40;;;;;;;;;;5009245;28;20194;-74
2023/08/04 02:30:20;;;;;;;3.53;1.80;;;;;;;;;;5029831;28;20198;-74
2023/08/04 02:32:46;;;;;;;2.63;1.77;;;;;;;;;;5010784;28;20202;-74
2023/08/04 02:35:12;;;;;;;3.63;1.70;;;;;;;;;;5029864;28;20186;-74
2023/08/04 02:37:38;;;;;;;2.83;1.70;;;;;;;;;;5029694;28;20210;-74
2023/08/04 02:40:04;;;;;;;2.37;1.70;;;;;;;;;;5011095;28;20190;-74
2023/08/04 02:42:31;;;;;;;3.13;1.80;;;;;;;;;;5030590;28;20662;-74
2023/08/04 02:44:57;;;;;;;3.10;1.60;;;;;;;;;;5012093;28;20182;-74
2023/08/04 02:47:23;;;;;;;3.03;1.80;;;;;;;;;;5029256;28;20611;-74
2023/08/04 02:49:49;;;;;;;1.83;1.40;;;;;;;;;;5028270;28;20178;-74
2023/08/04 02:52:16;;;;;;;3.23;1.70;;;;;;;;;;5023208;28;20206;-74
2023/08/04 02:54:43;;;;;;;2.00;1.60;;;;;;;;;;5012440;28;20187;-74
2023/08/04 02:57:09;;;;;;;2.37;1.73;;;;;;;;;;5029094;28;20220;-74
2023/08/04 02:59:36;;;;;;;2.47;1.40;;;;;;;;;;5025639;28;20183;-74
2023/08/04 03:02:02;;;;;;;2.73;1.63;;;;;;;;;;5028891;28;20573;-74
2023/08/04 03:04:28;;;;;;;4.80;1.73;;;;;;;;;;5029370;28;20210;-74
2023/08/04 03:06:54;;;;;;;3.47;1.50;;;;;;;;;;5028617;28;20222;-74
2023/08/04 03:09:20;;;;;;;3.80;1.60;;;;;;;;;;5029319;28;20182;-74
2023/08/04 03:11:47;;;;;;;2.70;1.50;;;;;;;;;;5029715;28;20221;-74
2023/08/04 03:14:13;;;;;;;3.97;1.70;;;;;;;;;;5012017;28;20195;-74
2023/08/04 03:16:39;;;;;;;4.27;1.80;;;;;;;;;;5029024;28;20194;-74
2023/08/04 03:19:05;;;;;;;2.53;1.60;;;;;;;;;;5012642;28;20186;-74
2023/08/04 03:21:31;;;;;;;4.60;1.67;;;;;;;;;;5029313;28;20194;-74
2023/08/04 03:23:57;;;;;;;1.43;1.33;;;;;;;;;;5029223;28;20407;-74
2023/08/04 03:26:23;;;;;;;3.30;1.43;;;;;;;;;;5029302;28;20213;-73
2023/08/04 03:28:49;;;;;;;3.03;1.50;;;;;;;;;;5029578;28;20254;-74
2023/08/04 03:31:15;;;;;;;2.27;1.50;;;;;;;;;;5028643;28;20199;-74
2023/08/04 03:33:41;;;;;;;2.77;1.70;;;;;;;;;;5011166;28;20619;-74
2023/08/04 03:36:08;;;;;;;3.17;1.70;;;;;;;;;;5028573;28;20186;-74
2023/08/04 03:38:34;;;;;;;3.47;1.70;;;;;;;;;;5028772;28;20607;-74
2023/08/04 03:41:01;;;;;;;4.60;1.90;;;;;;;;;;5028937;28;20253;-74
2023/08/04 03:43:27;;;;;;;3.10;1.50;;;;;;;;;;5029164;28;20178;-74
2023/08/04 03:45:53;;;;;;;3.40;1.50;;;;;;;;;;5008463;28;20275;-74
2023/08/04 03:48:19;;;;;;;2.83;1.43;;;;;;;;;;5028915;28;20800;-74
2023/08/04 03:50:45;;;;;;;2.40;1.47;;;;;;;;;;5025945;28;20261;-74
2023/08/04 03:53:12;;;;;;;3.83;1.60;;;;;;;;;;5027308;28;20245;-74
2023/08/04 03:55:38;;;;;;;3.63;1.70;;;;;;;;;;5029210;28;20670;-74
2023/08/04 03:58:04;;;;;;;2.87;1.60;;;;;;;;;;5010395;28;20622;-74
2023/08/04 04:00:31;;;;;;;3.57;1.70;;;;;;;;;;5007221;28;20182;-74
2023/08/04 04:02:57;;;;;;;2.93;1.57;;;;;;;;;;5009441;28;20645;-74
2023/08/04 04:05:23;;;;;;;3.63;1.90;;;;;;;;;;5029284;28;20174;-74
2023/08/04 04:07:49;;;;;;;4.67;1.50;;;;;;;;;;5028579;28;20244;-74
2023/08/04 04:10:15;;;;;;;2.03;1.63;;;;;;;;;;5028600;28;20278;-74
2023/08/04 04:12:41;;;;;;;5.00;1.93;;;;;;;;;;5029052;28;20225;-74
2023/08/04 04:15:08;;;;;;;4.07;1.80;;;;;;;;;;5011157;28;20241;-74
2023/08/04 04:17:34;;;;;;;3.83;1.83;;;;;;;;;;5031634;28;20206;-74
2023/08/04 04:20:00;;;;;;;2.93;1.77;;;;;;;;;;5032821;28;20179;-74
2023/08/04 04:22:27;;;;;;;3.30;1.90;;;;;;;;;;5030920;28;20198;-74
2023/08/04 04:24:53;;;;;;;2.37;1.70;;;;;;;;;;5015172;28;20626;-74
2023/08/04 04:27:19;;;;;;;3.27;1.87;;;;;;;;;;5013317;28;20237;-74
2023/08/04 04:29:45;;;;;;;4.57;1.90;;;;;;;;;;5032817;28;20680;-74
2023/08/04 04:32:11;;;;;;;3.23;1.90;;;;;;;;;;5015053;28;20689;-74
2023/08/04 04:34:37;;;;;;;2.67;1.80;;;;;;;;;;5032641;28;20181;-74
2023/08/04 04:37:04;;;;;;;3.70;1.83;;;;;;;;;;5032375;28;20206;-74
2023/08/04 04:39:30;;;;;;;3.87;2.00;;;;;;;;;;5032514;28;20630;-74
2023/08/04 04:41:56;;;;;;;3.60;2.03;;;;;;;;;;5032263;28;20744;-74
2023/08/04 04:44:22;;;;;;;3.23;2.00;;;;;;;;;;5021473;28;20566;-74
2023/08/04 04:46:48;;;;;;;2.47;2.07;;;;;;;;;;4995337;28;20184;-74
2023/08/04 04:49:16;;;;;;;3.03;2.20;;;;;;;;;;5031672;28;20645;-74
2023/08/04 04:51:43;;;;;;;3.43;2.10;;;;;;;;;;5032429;28;20229;-74
2023/08/04 04:54:09;;;;;;;3.40;1.97;;;;;;;;;;5014215;28;20190;-74
2023/08/04 04:56:35;;;;;;;4.13;2.10;;;;;;;;;;5014711;28;20272;-74
2023/08/04 04:59:01;;;;;;;3.10;1.90;;;;;;;;;;5031856;28;20186;-74
2023/08/04 05:01:27;;;;;;;2.23;1.90;;;;;;;;;;5027737;28;20218;-74
2023/08/04 05:03:53;;;;;;;4.80;2.20;;;;;;;;;;5014227;28;20632;-74
2023/08/04 05:06:19;;;;;;;2.63;1.70;;;;;;;;;;5031715;28;20188;-74
2023/08/04 05:08:46;;;;;;;2.57;2.00;;;;;;;;;;5031582;28;20558;-74
2023/08/04 05:11:15;;;;;;;4.03;2.23;;;;;;;;;;5012117;28;20324;-74
2023/08/04 05:13:44;;;;;;;3.40;2.40;;;;;;;;;;5009738;28;20308;-77
2023/08/04 05:16:10;;;;;;;4.53;2.10;;;;;;;;;;5013749;28;20265;-75
2023/08/04 05:18:36;;;;;;;3.90;2.20;;;;;;;;;;5031487;28;20216;-75
2023/08/04 05:21:03;;;;;;;4.97;2.10;;;;;;;;;;5031314;28;20178;-75
2023/08/04 05:23:29;;;;;;;3.20;2.07;;;;;;;;;;5031280;28;20569;-75
2023/08/04 05:25:55;;;;;;;2.77;2.00;;;;;;;;;;5030168;28;20273;-75
2023/08/04 05:28:28;;;;;;;2.73;1.80;;;;;;;;;;5011478;28;20195;-75
2023/08/04 05:30:56;;;;;;;2.80;2.07;;;;;;;;;;5026753;28;22027;-75
2023/08/04 05:33:23;;;;;;;3.77;1.90;;;;;;;;;;5029744;28;20191;-76
2023/08/04 05:35:49;;;;;;;3.27;1.90;;;;;;;;;;5030511;28;20183;-76
2023/08/04 05:38:15;;;;;;;3.13;1.90;;;;;;;;;;5010954;28;20519;-77
2023/08/04 05:40:43;;;;;;;2.73;1.80;;;;;;;;;;5012930;28;20201;-77
2023/08/04 05:43:09;;;;;;;4.30;1.90;;;;;;;;;;5008500;28;20202;-76
2023/08/04 05:45:35;;;;;;;3.80;2.00;;;;;;;;;;5030621;28;20211;-75
2023/08/04 05:48:02;;;;;;;3.13;2.10;;;;;;;;;;5030470;28;20259;-76
2023/08/04 05:50:28;;;;;;;3.27;2.00;;;;;;;;;;5013489;28;20235;-76
2023/08/04 05:52:54;;;;;;;2.80;2.00;;;;;;;;;;5013867;28;20292;-76
2023/08/04 05:55:21;;;;;;;4.77;2.47;;;;;;;;;;5031882;28;20197;-79
2023/08/04 05:57:47;;;;;;;6.03;2.40;;;;;;;;;;5013479;28;20210;-77
2023/08/04 06:00:13;;;;;;;4.27;2.00;;;;;;;;;;5013512;28;21263;-76
2023/08/04 06:02:41;;;;;;;3.50;2.30;;;;;;;;;;5010668;28;20202;-76
2023/08/04 06:05:07;;;;;;;3.00;2.13;;;;;;;;;;5031343;28;20175;-76
2023/08/04 06:07:33;;;;;;;3.27;2.03;;;;;;;;;;5009321;28;20189;-76
2023/08/04 06:10:00;;;;;;;2.63;1.87;;;;;;;;;;5013695;28;20229;-77
2023/08/04 06:12:26;;;;;;;4.47;2.30;;;;;;;;;;5032729;28;20218;-76
2023/08/04 06:14:52;;;;;;;5.23;2.20;;;;;;;;;;5031641;28;20208;-76
2023/08/04 06:17:18;;;;;;;4.50;2.33;;;;;;;;;;4996422;28;20210;-76
2023/08/04 06:19:44;;;;;;;4.63;2.50;;;;;;;;;;5031164;28;20193;-76
2023/08/04 06:22:13;;;;;;;3.87;2.50;;;;;;;;;;5030393;28;20678;-77
2023/08/04 06:24:39;;;;;;;2.93;2.30;;;;;;;;;;5031295;28;20175;-77
2023/08/04 06:27:05;;;;;;;3.77;2.40;;;;;;;;;;5012533;28;20199;-76
2023/08/04 06:29:32;;;;;;;4.20;2.50;;;;;;;;;;5030894;28;20716;-76
2023/08/04 06:31:58;;;;;;;4.90;2.57;;;;;;;;;;5011517;28;20822;-76
2023/08/04 06:34:24;;;;;;;4.13;2.60;;;;;;;;;;5030691;28;20278;-76
2023/08/04 06:36:50;;;;;;;3.83;2.80;;;;;;;;;;5012980;28;20186;-76
2023/08/04 06:39:17;;;;;;;4.93;3.20;;;;;;;;;;5029671;28;20179;-76
2023/08/04 06:41:44;;;;;;;4.83;3.40;;;;;;;;;;5013125;28;20563;-76
2023/08/04 06:44:11;;;;;;;4.87;3.70;;;;;;;;;;5030322;28;20183;-76
2023/08/04 06:46:37;;;;;;;3.77;3.30;;;;;;;;;;5030727;28;20175;-75
2023/08/04 06:49:03;;;;;;;3.10;2.70;;;;;;;;;;5030538;28;20183;-76
2023/08/04 06:51:29;;;;;;;3.97;2.63;;;;;;;;;;5012940;28;20248;-79
2023/08/04 06:53:55;;;;;;;3.03;2.60;;;;;;;;;;5030766;28;20688;-77
2023/08/04 06:56:22;;;;;;;3.37;2.73;;;;;;;;;;5030488;28;20186;-76
2023/08/04 06:58:48;;;;;;;3.10;2.67;;;;;;;;;;5030567;28;20210;-76
2023/08/04 07:01:14;;;;;;;2.40;2.20;;;;;;;;;;5030320;28;20183;-75
2023/08/04 07:03:40;;;;;;;2.30;2.10;;;;;;;;;;4996144;28;20178;-75
2023/08/04 07:06:07;;;;;;;3.13;2.10;;;;;;;;;;5029861;28;20183;-75
2023/08/04 07:08:33;;;;;;;2.87;2.30;;;;;;;;;;5029527;28;20272;-75
2023/08/04 07:10:59;;;;;;;2.20;2.03;;;;;;;;;;5030260;28;20218;-75
2023/08/04 07:13:25;;;;;;;2.70;2.50;;;;;;;;;;5024088;28;20216;-75
2023/08/04 07:15:55;;;;;;;3.00;2.50;;;;;;;;;;5012712;28;20194;-75
2023/08/04 07:18:21;;;;;;;2.90;2.70;;;;;;;;;;5012049;28;20268;-75
2023/08/04 07:20:47;;;;;;;3.90;3.10;;;;;;;;;;5030380;28;20194;-75
2023/08/04 07:23:13;;;;;;;3.33;3.00;;;;;;;;;;5025951;28;20207;-75
2023/08/04 07:25:39;;;;;;;4.97;3.53;;;;;;;;;;5030182;28;20186;-75
2023/08/04 07:28:06;;;;;;;3.70;3.30;;;;;;;;;;5011861;28;20672;-75
2023/08/04 07:30:37;;;;;;;4.13;3.37;;;;;;;;;;5024392;28;20175;-75
2023/08/04 07:33:07;;;;;;;4.40;3.43;;;;;;;;;;4995976;28;20206;-75
2023/08/04 07:35:33;;;;;;;4.40;3.47;;;;;;;;;;5029570;28;20201;-76
2023/08/04 07:38:00;;;;;;;4.43;3.67;;;;;;;;;;5028175;28;20218;-76
2023/08/04 07:40:26;;;;;;;3.97;3.57;;;;;;;;;;5025890;28;20183;-75
2023/08/04 07:42:52;;;;;;;4.33;3.40;;;;;;;;;;5029778;28;20293;-75
2023/08/04 07:45:18;;;;;;;4.20;3.80;;;;;;;;;;5029700;28;20231;-75
2023/08/04 07:47:44;;;;;;;3.13;2.90;;;;;;;;;;5029477;28;20819;-75
2023/08/04 07:50:10;;;;;;;5.23;2.70;;;;;;;;;;5028848;28;20186;-75
2023/08/04 07:52:36;;;;;;;3.17;2.23;;;;;;;;;;5029509;28;20206;-75
2023/08/04 07:55:02;;;;;;;3.03;2.00;;;;;;;;;;5012348;28;20281;-77
2023/08/04 07:57:29;;;;;;;2.40;2.20;;;;;;;;;;5029289;28;20699;-75
2023/08/04 07:59:55;;;;;;;2.03;1.93;;;;;;;;;;5025784;28;20183;-75
2023/08/04 08:02:21;;;;;;;2.23;2.00;;;;;;;;;;5011794;28;20213;-76
2023/08/04 08:04:47;;;;;;;2.50;2.30;;;;;;;;;;5029639;28;20204;-76
2023/08/04 08:07:14;;;;;;;2.70;2.50;;;;;;;;;;5028826;28;20189;-76
2023/08/04 08:09:40;;;;;;;2.50;2.30;;;;;;;;;;5029257;28;20186;-76
2023/08/04 08:12:06;;;;;;;2.40;2.20;;;;;;;;;;5011347;28;20222;-76
2023/08/04 08:14:32;;;;;;;1.90;1.80;;;;;;;;;;5029513;28;20190;-76
2023/08/04 08:16:58;;;;;;;1.83;1.70;;;;;;;;;;5029170;28;20244;-76
2023/08/04 08:19:25;;;;;;;1.60;1.50;;;;;;;;;;5028397;28;20191;-76
2023/08/04 08:21:51;;;;;;;2.93;1.63;;;;;;;;;;5029489;28;20207;-76
2023/08/04 08:24:17;;;;;;;1.60;1.50;;;;;;;;;;5011168;28;20237;-77
2023/08/04 08:26:43;;;;;;;1.70;1.60;;;;;;;;;;5027791;28;20182;-77
2023/08/04 08:29:09;;;;;;;2.50;1.50;;;;;;;;;;5009039;28;20187;-77
2023/08/04 08:31:35;;;;;;;3.20;1.60;;;;;;;;;;5029323;28;20206;-77
2023/08/04 08:34:01;;;;;;;2.37;1.87;;;;;;;;;;5029325;28;20209;-76
2023/08/04 08:36:28;;;;;;;1.90;1.60;;;;;;;;;;5028600;28;20185;-77
2023/08/04 08:38:54;;;;;;;2.03;1.70;;;;;;;;;;5027039;28;20236;-76
2023/08/04 08:41:23;;;;;;;1.80;1.60;;;;;;;;;;5026797;28;20190;-76
2023/08/04 08:43:49;;;;;;;2.33;1.70;;;;;;;;;;5029618;28;20182;-77
2023/08/04 08:46:15;;;;;;;1.83;1.47;;;;;;;;;;5028826;28;20232;-76
2023/08/04 08:48:44;;;;;;;5.83;1.80;;;;;;;;;;5010824;28;20666;-76
2023/08/04 08:51:19;;;;;;;1.77;1.67;;;;;;;;;;5011253;28;20666;-76
2023/08/04 08:53:46;;;;;;;2.13;1.77;;;;;;;;;;5024216;28;20186;-77
2023/08/04 08:56:12;;;;;;;2.33;1.97;;;;;;;;;;5010896;28;20195;-78
2023/08/04 08:58:39;;;;;;;1.90;1.80;;;;;;;;;;5028685;28;20206;-76
2023/08/04 09:01:06;;;;;;;2.07;1.70;;;;;;;;;;5011129;28;20613;-77
2023/08/04 09:03:34;;;;;;;2.07;1.80;;;;;;;;;;5029698;28;20234;-77
2023/08/04 09:06:00;;;;;;;2.90;1.90;;;;;;;;;;5032619;28;20182;-75
2023/08/04 09:08:27;;;;;;;2.33;1.90;;;;;;;;;;5031837;28;20182;-76
2023/08/04 09:10:54;;;;;;;2.43;1.90;;;;;;;;;;5032513;28;20225;-76
2023/08/04 09:13:21;;;;;;;3.97;2.17;;;;;;;;;;5029527;28;20581;-78
2023/08/04 09:15:48;;;;;;;2.20;2.00;;;;;;;;;;5012556;28;20178;-76
2023/08/04 09:18:28;;;;;;;2.57;2.20;;;;;;;;;;5013621;28;20210;-76
2023/08/04 09:21:01;;;;;;;2.43;2.23;;;;;;;;;;5032506;28;20209;-78
2023/08/04 09:23:29;;;;;;;2.00;1.90;;;;;;;;;;5027014;28;20205;-76
2023/08/04 09:25:55;;;;;;;2.33;2.13;;;;;;;;;;5032168;28;20190;-76
2023/08/04 09:28:22;;;;;;;2.47;2.27;;;;;;;;;;5014019;28;20236;-76
2023/08/04 09:31:04;;;;;;;2.67;2.40;;;;;;;;;;4981301;28;20735;-76
2023/08/04 09:33:31;;;;;;;2.23;2.00;;;;;;;;;;5031126;28;20206;-78
2023/08/04 09:36:11;;;;;;;3.43;2.07;;;;;;;;;;5014159;28;20260;-76
2023/08/04 09:38:37;;;;;;;3.27;2.10;;;;;;;;;;5026592;28;20209;-76
2023/08/04 09:41:09;;;;;;;4.23;2.20;;;;;;;;;;5031773;28;20222;-76
2023/08/04 09:43:35;;;;;;;2.70;2.50;;;;;;;;;;4981751;28;20211;-78
2023/08/04 09:46:06;;;;;;;2.60;2.40;;;;;;;;;;5032437;28;20210;-76
2023/08/04 09:48:33;;;;;;;2.43;2.23;;;;;;;;;;5014868;28;20198;-75
2023/08/04 09:51:05;;;;;;;3.00;2.33;;;;;;;;;;5031495;28;20221;-77
2023/08/04 09:53:35;;;;;;;2.30;2.13;;;;;;;;;;5013728;28;20214;-76
2023/08/04 09:56:01;;;;;;;2.43;2.23;;;;;;;;;;5031524;28;20232;-75
2023/08/04 09:58:27;;;;;;;2.50;2.30;;;;;;;;;;5029921;28;20225;-77
2023/08/04 10:00:54;;;;;;;4.37;2.37;;;;;;;;;;5024258;28;20214;-76
2023/08/04 10:03:21;;;;;;;2.50;2.30;;;;;;;;;;5012142;28;20202;-77
2023/08/04 10:05:48;;;;;;;2.40;2.20;;;;;;;;;;5028312;28;20620;-79
2023/08/04 10:08:14;;;;;;;2.13;2.03;;;;;;;;;;5006374;28;20201;-79
2023/08/04 10:10:41;;;;;;;2.50;2.30;;;;;;;;;;5033005;28;20183;-79
2023/08/04 10:13:07;;;;;;;3.43;2.60;;;;;;;;;;4996902;28;20221;-79
2023/08/04 10:15:33;;;;;;;2.67;2.23;;;;;;;;;;5031613;28;20664;-79
2023/08/04 10:18:00;;;;;;;3.10;2.30;;;;;;;;;;5030765;28;20705;-79
2023/08/04 10:20:27;;;;;;;2.33;2.13;;;;;;;;;;5031704;28;20179;-79
2023/08/04 10:22:53;;;;;;;2.60;2.40;;;;;;;;;;5031643;28;20726;-79
2023/08/04 10:25:21;;;;;;;2.47;2.27;;;;;;;;;;5013409;28;20178;-79
2023/08/04 10:27:49;;;;;;;2.80;2.60;;;;;;;;;;4996950;28;20193;-78
2023/08/04 10:30:15;;;;;;;2.13;2.03;;;;;;;;;;5013752;28;20289;-79
2023/08/04 10:32:41;;;;;;;2.40;2.20;;;;;;;;;;5018763;28;20705;-79
2023/08/04 10:35:19;;;;;;;2.40;2.20;;;;;;;;;;5011638;28;20272;-79
2023/08/04 10:37:55;;;;;;;2.50;2.30;;;;;;;;;;4994181;28;20204;-78
2023/08/04 10:40:31;;;;;;;3.27;2.10;;;;;;;;;;5012908;28;20182;-78
2023/08/04 10:42:59;;;;;;;2.80;2.60;;;;;;;;;;5031020;28;20235;-78
2023/08/04 10:45:45;;;;;;;3.10;2.80;;;;;;;;;;4997355;28;20277;-78
2023/08/04 10:48:14;;;;;;;4.07;3.77;;;;;;;;;;5010749;28;20196;-78
2023/08/04 10:50:40;;;;;;;5.37;4.87;;;;;;;;;;5020467;28;20179;-78
2023/08/04 10:53:06;;;;;;;6.33;5.37;;;;;;;;;;5026772;28;20577;-78
2023/08/04 10:55:34;;;;;;;5.80;5.30;;;;;;;;;;5013009;28;20189;-78
2023/08/04 10:58:00;;;;;;;6.37;5.30;;;;;;;;;;5012522;28;20242;-78
2023/08/04 11:00:26;;;;;;;6.73;5.60;;;;;;;;;;5031018;28;20194;-78
2023/08/04 11:02:52;;;;;;;6.70;6.00;;;;;;;;;;5030098;28;20195;-78
2023/08/04 11:05:23;;;;;;;6.80;6.10;;;;;;;;;;5031113;28;20681;-78
2023/08/04 11:07:50;;;;;;;6.00;5.43;;;;;;;;;;5012710;28;20190;-79
2023/08/04 11:10:16;;;;;;;6.00;5.40;;;;;;;;;;4996070;28;20186;-78
2023/08/04 11:12:42;;;;;;;6.17;5.57;;;;;;;;;;5066684;22;20336;-74
2023/08/04 11:15:11;;;;;;;6.97;5.50;;;;;;;;;;5049470;28;20656;-74
2023/08/04 11:17:42;;;;;;;6.87;5.30;;;;;;;;;;5048599;28;20210;-76
2023/08/04 11:20:12;;;;;;;5.80;5.20;;;;;;;;;;5048558;28;20656;-76
2023/08/04 11:22:38;;;;;;;5.40;4.90;;;;;;;;;;5050767;28;20201;-76
2023/08/04 11:25:06;;;;;;;6.10;5.27;;;;;;;;;;5044546;28;20678;-75
2023/08/04 11:27:32;;;;;;;6.00;5.40;;;;;;;;;;5066302;28;20188;-75
2023/08/04 11:29:58;;;;;;;6.53;5.93;;;;;;;;;;5065807;28;20238;-76
2023/08/04 11:32:25;;;;;;;7.87;6.87;;;;;;;;;;5068439;28;20575;-76
2023/08/04 11:34:54;;;;;;;7.00;6.30;;;;;;;;;;5069571;28;20250;-76
2023/08/04 11:37:21;;;;;;;6.63;5.80;;;;;;;;;;5031791;28;20753;-76
2023/08/04 11:39:48;;;;;;;7.13;6.17;;;;;;;;;;5068327;28;20201;-76
2023/08/04 11:42:14;;;;;;;8.03;6.10;;;;;;;;;;5066720;28;20250;-76
2023/08/04 11:44:41;;;;;;;6.57;5.97;;;;;;;;;;5065198;28;20234;-76
2023/08/04 11:47:09;;;;;;;7.53;6.00;;;;;;;;;;5062793;28;20656;-76
2023/08/04 11:49:35;;;;;;;7.30;5.90;;;;;;;;;;5064046;28;20193;-76
2023/08/04 11:52:05;;;;;;;5.90;5.40;;;;;;;;;;5058692;28;20177;-77
2023/08/04 11:54:31;;;;;;;6.37;5.77;;;;;;;;;;5067407;28;20177;-75
2023/08/04 11:56:59;;;;;;;7.73;5.80;;;;;;;;;;5059526;28;20889;-76
2023/08/04 11:59:25;;;;;;;6.27;5.60;;;;;;;;;;5043255;28;20570;-77
2023/08/04 12:02:05;;;;;;;6.07;5.47;;;;;;;;;;5027208;28;20196;-77
2023/08/04 12:04:31;;;;;;;6.53;5.60;;;;;;;;;;5063173;28;20670;-77
2023/08/04 12:06:58;;;;;;;5.73;5.10;;;;;;;;;;5066286;28;20181;-79
2023/08/04 12:09:25;;;;;;;5.90;5.33;;;;;;;;;;5067188;28;20185;-78
2023/08/04 12:11:51;;;;;;;5.57;5.07;;;;;;;;;;5069117;28;20212;-78
2023/08/04 12:14:17;;;;;;;7.10;5.87;;;;;;;;;;5066847;28;20273;-78
2023/08/04 12:16:50;;;;;;;6.37;5.60;;;;;;;;;;5064185;28;20553;-78
2023/08/04 12:19:17;;;;;;;6.37;5.33;;;;;;;;;;5051562;28;20272;-78
2023/08/04 12:21:44;;;;;;;6.90;5.33;;;;;;;;;;5067831;28;20284;-78
2023/08/04 12:24:11;;;;;;;7.43;5.80;;;;;;;;;;5061097;28;20273;-78
2023/08/04 12:26:37;;;;;;;5.23;4.57;;;;;;;;;;5067830;28;20298;-78
2023/08/04 12:29:04;;;;;;;5.50;5.00;;;;;;;;;;5069647;28;20197;-78
2023/08/04 12:31:30;;;;;;;6.67;5.10;;;;;;;;;;5075708;28;20185;-78
2023/08/04 12:33:56;;;;;;;5.00;4.50;;;;;;;;;;5068929;28;20291;-78
2023/08/04 12:36:22;;;;;;;8.10;4.87;;;;;;;;;;5065191;28;20200;-78
2023/08/04 12:38:48;;;;;;;5.40;4.30;;;;;;;;;;5070289;28;20213;-78
2023/08/04 12:41:14;;;;;;;4.90;4.47;;;;;;;;;;5071056;28;20525;-78
2023/08/04 12:43:40;;;;;;;4.60;4.10;;;;;;;;;;5072260;28;20671;-78
2023/08/04 12:46:06;;;;;;;5.77;4.70;;;;;;;;;;5071207;28;20663;-78
2023/08/04 12:48:32;;;;;;;6.07;3.93;;;;;;;;;;5067648;28;20212;-78
2023/08/04 12:50:59;;;;;;;6.47;4.90;;;;;;;;;;5072240;28;20319;-78
2023/08/04 12:53:25;;;;;;;4.80;4.10;;;;;;;;;;5070134;28;20210;-78
2023/08/04 12:55:51;;;;;;;4.50;3.60;;;;;;;;;;5073996;28;20193;-79
2023/08/04 12:58:17;;;;;;;4.50;3.70;;;;;;;;;;5069587;28;20240;-79
2023/08/04 13:00:43;;;;;;;3.70;3.30;;;;;;;;;;5068297;28;20597;-79
2023/08/04 13:03:09;;;;;;;5.20;3.50;;;;;;;;;;5067300;28;20249;-79
2023/08/04 13:05:35;;;;;;;5.37;3.60;;;;;;;;;;5070638;28;20235;-79
2023/08/04 13:08:01;;;;;;;3.93;3.40;;;;;;;;;;5069486;28;20246;-79
2023/08/04 13:10:28;;;;;;;3.97;3.50;;;;;;;;;;5068835;28;20178;-79
2023/08/04 13:12:54;;;;;;;4.33;3.53;;;;;;;;;;5062416;28;20226;-78
2023/08/04 13:15:20;;;;;;;3.93;3.53;;;;;;;;;;5051129;28;20181;-79
2023/08/04 13:17:46;;;;;;;4.87;3.50;;;;;;;;;;5072144;28;20213;-79
2023/08/04 13:20:12;;;;;;;4.20;3.60;;;;;;;;;;5068127;28;20212;-78
2023/08/04 13:22:38;;;;;;;4.73;3.90;;;;;;;;;;5070399;28;20537;-78
2023/08/04 13:25:04;;;;;;;4.30;3.90;;;;;;;;;;5070380;28;20193;-78
2023/08/04 13:27:31;;;;;;;6.13;3.90;;;;;;;;;;5069526;28;20274;-78
2023/08/04 13:29:57;;;;;;;3.80;3.50;;;;;;;;;;5066410;28;20189;-78
2023/08/04 13:32:23;;;;;;;4.50;3.90;;;;;;;;;;5051315;28;20205;-78
2023/08/04 13:34:49;;;;;;;4.17;3.10;;;;;;;;;;5067742;28;20654;-78
2023/08/04 13:37:15;;;;;;;4.00;3.27;;;;;;;;;;5067292;28;20341;-79
2023/08/04 13:39:41;;;;;;;2.63;2.43;;;;;;;;;;5070257;28;20177;-79
2023/08/04 13:42:07;;;;;;;4.67;2.40;;;;;;;;;;5068712;28;20212;-79
2023/08/04 13:44:33;;;;;;;2.60;2.37;;;;;;;;;;5068460;28;20535;-78
2023/08/04 13:47:00;;;;;;;2.73;2.53;;;;;;;;;;5068453;28;20234;-78
2023/08/04 13:49:26;;;;;;;3.87;2.80;;;;;;;;;;5064636;28;20201;-78
2023/08/04 13:51:52;;;;;;;2.73;2.50;;;;;;;;;;5059694;28;20268;-75
2023/08/04 13:54:18;;;;;;;3.73;2.80;;;;;;;;;;5069969;28;20173;-75
2023/08/04 13:56:44;;;;;;;4.77;2.60;;;;;;;;;;5053132;28;20633;-76
2023/08/04 13:59:10;;;;;;;2.60;2.40;;;;;;;;;;5070100;28;20262;-76
2023/08/04 14:01:36;;;;;;;3.03;2.40;;;;;;;;;;5053245;28;20177;-75
2023/08/04 14:04:02;;;;;;;2.80;2.50;;;;;;;;;;5051599;28;20926;-78
2023/08/04 14:06:30;;;;;;;2.47;2.27;;;;;;;;;;5070479;28;20182;-76
2023/08/04 14:08:56;;;;;;;3.80;2.40;;;;;;;;;;5071001;28;20273;-76
2023/08/04 14:11:22;;;;;;;3.77;2.67;;;;;;;;;;5068694;28;20209;-74
2023/08/04 14:13:48;;;;;;;3.63;2.63;;;;;;;;;;5068489;28;20270;-75
2023/08/04 14:16:15;;;;;;;4.07;2.80;;;;;;;;;;5067517;28;20546;-75
2023/08/04 14:18:41;;;;;;;2.83;2.60;;;;;;;;;;5068496;28;20210;-75
2023/08/04 14:21:08;;;;;;;3.10;2.70;;;;;;;;;;5070570;28;20284;-75
2023/08/04 14:23:34;;;;;;;3.77;2.40;;;;;;;;;;5070407;28;20241;-76
2023/08/04 14:26:00;;;;;;;3.37;2.60;;;;;;;;;;5052479;28;20177;-77
2023/08/04 14:28:26;;;;;;;2.77;2.50;;;;;;;;;;5067262;28;20191;-76
2023/08/04 14:30:53;;;;;;;3.23;2.93;;;;;;;;;;5070516;28;20185;-76
2023/08/04 14:33:19;;;;;;;3.20;2.90;;;;;;;;;;5069618;28;20205;-76
2023/08/04 14:35:45;;;;;;;3.00;2.70;;;;;;;;;;5070692;28;20200;-72
2023/08/04 14:38:11;;;;;;;3.20;2.90;;;;;;;;;;5066594;28;20220;-74
2023/08/04 14:40:38;;;;;;;3.30;2.93;;;;;;;;;;5052238;28;20188;-74